Time;durP1;ratioP1;P1;durP2;ratioP2;P2;SDS_P1;SDS_P2;PMS_P1;PMS_P2;Temp;Humidity;BMP_temperature;BMP_pressure;BME280_temperature;BME280_humidity;BME280_pressure;Samples;Min_cycle;Max_cycle;Signal;HPM_P1;HPM_P2
2022/08/30 07:02:08;;;;;;;2.58;1.52;;;;;;;;;;12898618;22;1257175;-82
2022/08/30 07:07:47;;;;;;;2.10;1.30;;;;;;;;;;12843585;23;20012;-87
2022/08/30 07:12:58;;;;;;;5.65;1.73;;;;;;;;;;12807769;23;20006;-86
2022/08/30 07:23:19;;;;;;;2.93;1.93;;;;;;;;;;12814365;23;20021;-86
2022/08/30 07:28:22;;;;;;;4.35;1.90;;;;;;;;;;12808924;23;20092;-84
2022/08/30 07:33:25;;;;;;;6.45;3.03;;;;;;;;;;12811732;23;20001;-86
2022/08/30 07:38:27;;;;;;;7.20;2.90;;;;;;;;;;12786123;23;20013;-85
2022/08/30 07:43:30;;;;;;;5.68;2.70;;;;;;;;;;12814891;23;20005;-84
2022/08/30 07:48:35;;;;;;;4.30;2.60;;;;;;;;;;12812700;23;20012;-86
2022/08/30 07:53:39;;;;;;;3.75;2.50;;;;;;;;;;12814150;23;20084;-85
2022/08/30 07:58:52;;;;;;;3.45;2.40;;;;;;;;;;12812526;23;20017;-85
2022/08/30 08:03:53;;;;;;;7.25;2.20;;;;;;;;;;12812328;23;20056;-85
2022/08/30 08:08:56;;;;;;;2.55;1.80;;;;;;;;;;12786797;23;20099;-84
2022/08/30 08:13:57;;;;;;;4.30;1.70;;;;;;;;;;12785877;23;20031;-85
2022/08/30 08:19:00;;;;;;;3.03;1.80;;;;;;;;;;12791006;23;20005;-86
2022/08/30 08:24:01;;;;;;;3.38;2.03;;;;;;;;;;12791168;23;20013;-86
2022/08/30 08:29:36;;;;;;;2.90;2.40;;;;;;;;;;12789318;23;20023;-85
2022/08/30 08:34:38;;;;;;;4.05;2.05;;;;;;;;;;12795658;23;20092;-86
2022/08/30 08:39:39;;;;;;;5.70;2.08;;;;;;;;;;12787154;23;20073;-86
2022/08/30 08:44:59;;;;;;;4.22;2.35;;;;;;;;;;12784822;23;20004;-86
2022/08/30 08:50:04;;;;;;;9.43;7.15;;;;;;;;;;12782624;23;20065;-85
2022/08/30 08:55:08;;;;;;;3.28;2.45;;;;;;;;;;12783899;23;20009;-85
2022/08/30 09:00:10;;;;;;;3.50;2.47;;;;;;;;;;12785476;23;20036;-85
2022/08/30 09:05:18;;;;;;;4.97;1.85;;;;;;;;;;12791850;23;20067;-85
2022/08/30 09:10:23;;;;;;;3.35;2.33;;;;;;;;;;12815274;23;20001;-85
2022/08/30 09:15:25;;;;;;;4.93;1.70;;;;;;;;;;12830258;23;20015;-86
2022/08/30 09:20:28;;;;;;;2.80;1.70;;;;;;;;;;12834209;23;20029;-86
2022/08/30 09:25:34;;;;;;;2.72;1.60;;;;;;;;;;12809247;23;20005;-86
2022/08/30 09:30:35;;;;;;;5.25;3.45;;;;;;;;;;12811541;23;20001;-85
2022/08/30 09:46:02;;;;;;;3.65;1.67;;;;;;;;;;12902846;23;20016;-86
2022/08/30 09:57:16;;;;;;;3.55;2.00;;;;;;;;;;12950741;22;20060;-84
2022/08/30 10:03:11;;;;;;;3.55;1.30;;;;;;;;;;12717918;23;20004;-85
2022/08/30 10:14:30;;;;;;;3.72;1.42;;;;;;;;;;12943676;22;20008;-87
2022/08/30 10:20:10;;;;;;;3.17;2.03;;;;;;;;;;12916054;23;20062;-86
2022/08/30 10:31:16;;;;;;;9.63;1.90;;;;;;;;;;12940494;23;20012;-85
2022/08/30 10:42:35;;;;;;;3.17;1.73;;;;;;;;;;12699335;23;20014;-85
2022/08/30 10:53:35;;;;;;;3.53;1.70;;;;;;;;;;12689255;23;20002;-87
2022/08/30 10:59:08;;;;;;;7.53;2.17;;;;;;;;;;12768389;23;20377;-87
2022/08/30 11:04:30;;;;;;;2.65;1.73;;;;;;;;;;12857921;23;20417;-86
2022/08/30 11:21:19;;;;;;;5.13;2.30;;;;;;;;;;12882383;23;20444;-86
2022/08/30 11:26:49;;;;;;;10.68;4.90;;;;;;;;;;12851501;23;20063;-86
2022/08/30 11:32:24;;;;;;;4.72;3.10;;;;;;;;;;12876462;23;20005;-85
2022/08/30 11:37:43;;;;;;;4.25;2.17;;;;;;;;;;12686207;23;20039;-85
2022/08/30 11:43:24;;;;;;;3.22;2.50;;;;;;;;;;12883515;23;20004;-85
2022/08/30 11:48:44;;;;;;;4.75;1.88;;;;;;;;;;12887655;23;20024;-83
2022/08/30 11:59:45;;;;;;;2.58;2.03;;;;;;;;;;12945039;23;20008;-86
2022/08/30 12:05:20;;;;;;;5.40;1.92;;;;;;;;;;12933273;22;20016;-86
2022/08/30 12:22:36;;;;;;;5.20;2.50;;;;;;;;;;12689841;23;20006;-86
2022/08/30 12:27:41;;;;;;;3.17;2.20;;;;;;;;;;12660231;23;20006;-85
2022/08/30 12:33:24;;;;;;;3.40;1.90;;;;;;;;;;12671086;23;20006;-87
2022/08/30 12:44:04;;;;;;;4.63;2.80;;;;;;;;;;12727128;23;20000;-86
2022/08/30 12:55:15;;;;;;;4.50;2.20;;;;;;;;;;12934197;22;20035;-85
2022/08/30 13:00:34;;;;;;;3.70;3.03;;;;;;;;;;12831298;23;20072;-86
2022/08/30 13:05:38;;;;;;;6.43;2.58;;;;;;;;;;12883315;22;20378;-86
2022/08/30 13:11:03;;;;;;;3.33;2.60;;;;;;;;;;12935789;23;20000;-85
2022/08/30 13:16:40;;;;;;;5.88;3.30;;;;;;;;;;12923523;22;20055;-84
2022/08/30 13:21:58;;;;;;;4.07;2.13;;;;;;;;;;12935933;23;20008;-87
2022/08/30 13:27:05;;;;;;;5.60;4.30;;;;;;;;;;12919103;22;20435;-87
2022/08/30 13:32:16;;;;;;;6.05;2.28;;;;;;;;;;12935748;23;20000;-86
2022/08/30 13:38:17;;;;;;;3.15;2.10;;;;;;;;;;12683965;23;20006;-86
2022/08/30 13:44:03;;;;;;;2.83;2.30;;;;;;;;;;12593225;23;20010;-86
2022/08/30 13:49:38;;;;;;;3.40;2.58;;;;;;;;;;12499392;23;20039;-87
2022/08/30 13:55:09;;;;;;;2.88;2.00;;;;;;;;;;12622476;23;20009;-87
2022/08/30 14:00:31;;;;;;;4.60;2.60;;;;;;;;;;12622968;23;20083;-87
2022/08/30 14:05:53;;;;;;;3.03;1.85;;;;;;;;;;12653781;23;20014;-87
2022/08/30 14:11:01;;;;;;;4.53;2.40;;;;;;;;;;12767567;23;20000;-87
2022/08/30 14:16:21;;;;;;;4.43;2.15;;;;;;;;;;12909447;23;20043;-85
2022/08/30 14:21:23;;;;;;;3.42;2.97;;;;;;;;;;12907851;23;20004;-86
2022/08/30 14:26:32;;;;;;;4.18;2.03;;;;;;;;;;12936386;23;20083;-85
2022/08/30 14:31:35;;;;;;;3.97;2.10;;;;;;;;;;12965713;22;20019;-85
2022/08/30 14:36:55;;;;;;;4.28;1.98;;;;;;;;;;12914270;23;20024;-86
2022/08/30 14:42:05;;;;;;;2.95;1.70;;;;;;;;;;12914241;23;20011;-84
2022/08/30 14:47:07;;;;;;;4.45;2.10;;;;;;;;;;12944042;23;20103;-85
2022/08/30 14:52:30;;;;;;;7.15;2.70;;;;;;;;;;12915213;23;20008;-85
2022/08/30 14:58:02;;;;;;;3.38;2.28;;;;;;;;;;12948672;23;19995;-86
2022/08/30 15:03:10;;;;;;;3.63;2.03;;;;;;;;;;12929297;23;20072;-86
2022/08/30 15:08:39;;;;;;;4.60;2.83;;;;;;;;;;12906933;23;20016;-86
2022/08/30 15:13:45;;;;;;;2.45;1.90;;;;;;;;;;12918562;23;20030;-86
2022/08/30 15:18:49;;;;;;;4.28;1.90;;;;;;;;;;12921389;22;20493;-88
2022/08/30 15:29:20;;;;;;;5.28;1.83;;;;;;;;;;12933410;23;20008;-86
2022/08/30 15:34:23;;;;;;;3.83;2.50;;;;;;;;;;12954054;22;20001;-85
2022/08/30 15:39:29;;;;;;;5.82;2.20;;;;;;;;;;12960697;22;20004;-85
2022/08/30 15:44:32;;;;;;;3.00;1.67;;;;;;;;;;12929946;22;20000;-85
2022/08/30 15:50:03;;;;;;;5.18;2.10;;;;;;;;;;12937356;23;20441;-88
2022/08/30 15:55:06;;;;;;;3.83;1.88;;;;;;;;;;12911269;22;20000;-86
2022/08/30 16:00:09;;;;;;;3.17;1.50;;;;;;;;;;12941887;23;20008;-87
2022/08/30 16:05:18;;;;;;;4.57;2.03;;;;;;;;;;12943062;22;20007;-86
2022/08/30 16:10:21;;;;;;;4.13;3.65;;;;;;;;;;12943016;23;20030;-87
2022/08/30 16:15:25;;;;;;;2.50;1.65;;;;;;;;;;12948522;22;20000;-85
2022/08/30 16:20:26;;;;;;;3.10;1.60;;;;;;;;;;12938282;23;20290;-85
2022/08/30 16:25:28;;;;;;;3.42;2.00;;;;;;;;;;12947119;22;20151;-79
2022/08/30 16:30:30;;;;;;;3.67;1.85;;;;;;;;;;12943393;23;20000;-81
2022/08/30 16:35:31;;;;;;;2.78;1.58;;;;;;;;;;12944266;22;20008;-81
2022/08/30 16:40:36;;;;;;;3.00;1.70;;;;;;;;;;12890240;23;20012;-81
2022/08/30 16:45:37;;;;;;;2.53;1.63;;;;;;;;;;12942303;22;20008;-81
2022/08/30 16:50:45;;;;;;;4.60;2.53;;;;;;;;;;12915199;23;20000;-82
2022/08/30 16:55:47;;;;;;;2.65;2.10;;;;;;;;;;12938404;22;20004;-81
2022/08/30 17:00:49;;;;;;;3.40;1.80;;;;;;;;;;12886801;23;20339;-81
2022/08/30 17:06:03;;;;;;;2.08;1.75;;;;;;;;;;12915233;22;20016;-81
2022/08/30 17:11:05;;;;;;;5.32;2.95;;;;;;;;;;12939813;23;20008;-81
2022/08/30 17:16:10;;;;;;;2.10;1.90;;;;;;;;;;12937403;22;20004;-81
2022/08/30 17:21:17;;;;;;;3.90;2.05;;;;;;;;;;12934677;23;20023;-81
2022/08/30 17:26:18;;;;;;;3.45;1.92;;;;;;;;;;12848241;23;20032;-81
2022/08/30 17:31:20;;;;;;;2.22;1.88;;;;;;;;;;12845865;23;20008;-81
2022/08/30 17:36:25;;;;;;;2.63;1.63;;;;;;;;;;12874204;23;20005;-81
2022/08/30 17:41:29;;;;;;;2.67;1.95;;;;;;;;;;12872090;23;20001;-80
2022/08/30 17:46:35;;;;;;;3.67;2.30;;;;;;;;;;12847926;23;20040;-81
2022/08/30 17:51:39;;;;;;;2.88;1.60;;;;;;;;;;12843250;23;20005;-81
2022/08/30 17:56:42;;;;;;;2.58;1.80;;;;;;;;;;12847198;23;20020;-81
2022/08/30 18:01:46;;;;;;;3.80;1.95;;;;;;;;;;12847182;23;20433;-81
2022/08/30 18:06:47;;;;;;;2.85;1.98;;;;;;;;;;12741113;23;20063;-80
2022/08/30 18:11:50;;;;;;;4.32;1.90;;;;;;;;;;12845070;23;20056;-81
2022/08/30 18:16:52;;;;;;;3.47;1.70;;;;;;;;;;12848413;23;20011;-80
2022/08/30 18:21:54;;;;;;;2.70;1.40;;;;;;;;;;12869639;23;20070;-80
2022/08/30 18:26:56;;;;;;;2.35;1.60;;;;;;;;;;12949424;22;20011;-80
2022/08/30 18:32:01;;;;;;;2.80;1.50;;;;;;;;;;12951398;23;20004;-80
2022/08/30 18:37:03;;;;;;;3.05;1.77;;;;;;;;;;12948258;22;20005;-80
2022/08/30 18:42:05;;;;;;;2.97;1.92;;;;;;;;;;12946640;23;20228;-79
2022/08/30 18:47:08;;;;;;;1.80;1.55;;;;;;;;;;12928025;23;20004;-81
2022/08/30 18:52:10;;;;;;;2.75;1.70;;;;;;;;;;12900948;23;20008;-81
2022/08/30 18:57:11;;;;;;;2.20;1.50;;;;;;;;;;12947379;23;20501;-81
2022/08/30 19:02:15;;;;;;;3.72;1.50;;;;;;;;;;12947751;23;20004;-81
2022/08/30 19:07:17;;;;;;;3.72;1.40;;;;;;;;;;12951404;23;20008;-80
2022/08/30 19:12:19;;;;;;;3.67;1.70;;;;;;;;;;12954683;23;20062;-80
2022/08/30 19:17:25;;;;;;;1.88;1.40;;;;;;;;;;12929628;23;20313;-81
2022/08/30 19:22:26;;;;;;;2.10;1.65;;;;;;;;;;12955845;23;20008;-80
